Time,TemperatureC,DewpointC,PressurehPa,WindDirection,WindDirectionDegrees,WindSpeedKMH,WindSpeedGustKMH,Humidity,HourlyPrecipMM,Conditions,Clouds,dailyrainMM,SolarRadiationWatts/m^2,UVIndex,SoftwareType,DateUTC
2022-06-30 00:00:00,12.2,8.6,1019.2,WNW,298,8,19.3,79,0.0,,,0.0,,,n/a,2022-06-29T22:00:00Z
2022-06-30 00:10:00,12.1,8.6,1019.4,West,269,4.8,12.9,79,0.0,,,0.0,,,n/a,2022-06-29T22:10:00Z
2022-06-30 00:20:00,12.2,8.8,1019.4,WNW,282,3.2,12.9,80,0.0,,,0.0,,,n/a,2022-06-29T22:20:00Z
2022-06-30 00:30:00,12.3,8.8,1019.4,West,267,4.8,14.5,79,0.0,,,0.0,,,n/a,2022-06-29T22:30:00Z
2022-06-30 00:40:00,12.3,9,1019.4,West,276,8,12.9,80,0.0,,,0.0,,,n/a,2022-06-29T22:40:00Z
2022-06-30 00:50:00,12.2,8.8,1019.3,WNW,285,9.7,16.1,80,0.0,,,0.0,,,n/a,2022-06-29T22:50:00Z
2022-06-30 01:00:00,12,8.8,1019.3,West,259,9.7,19.3,81,0.0,,,0.0,,,n/a,2022-06-29T23:00:00Z
2022-06-30 01:10:00,11.8,8.8,1019.3,SW,234,8,12.9,82,0.0,,,0.0,,,n/a,2022-06-29T23:10:00Z
2022-06-30 01:20:00,11.6,8.6,1019.4,WSW,244,4.8,11.3,82,0.0,,,0.0,,,n/a,2022-06-29T23:20:00Z
2022-06-30 01:30:00,11.6,8.8,1019.5,SW,228,3.2,8,83,0.0,,,0.0,,,n/a,2022-06-29T23:30:00Z
2022-06-30 01:40:00,11.6,8.4,1019.5,WNW,294,4.8,12.9,81,0.0,,,0.0,,,n/a,2022-06-29T23:40:00Z
2022-06-30 01:50:00,11.3,8.4,1019.6,WSW,254,9.7,12.9,82,0.0,,,0.0,,,n/a,2022-06-29T23:50:00Z
2022-06-30 02:00:00,11.3,8.3,1019.7,West,278,4.8,12.9,82,0.0,,,0.0,,,n/a,2022-06-30T00:00:00Z
2022-06-30 02:10:00,11.1,8.3,1019.6,WNW,294,4.8,12.9,83,0.0,,,0.0,,,n/a,2022-06-30T00:10:00Z
2022-06-30 02:20:00,11.2,8.6,1019.6,West,279,4.8,11.3,84,0.0,,,0.0,,,n/a,2022-06-30T00:20:00Z
2022-06-30 02:30:00,11.2,8.6,1019.7,SW,234,1.6,11.3,84,0.0,,,0.0,,,n/a,2022-06-30T00:30:00Z
2022-06-30 02:40:00,11.1,8.7,1019.7,SW,223,0,4.8,85,0.0,,,0.0,,,n/a,2022-06-30T00:40:00Z
2022-06-30 02:50:00,11.1,8.5,1019.7,WSW,252,1.6,6.4,84,0.0,,,0.0,,,n/a,2022-06-30T00:50:00Z
2022-06-30 03:00:00,11.3,8.7,1019.8,West,270,3.2,6.4,84,0.0,,,0.0,,,n/a,2022-06-30T01:00:00Z
2022-06-30 03:10:00,11.4,8.6,1019.9,West,279,4.8,8,83,0.0,,,0.0,,,n/a,2022-06-30T01:10:00Z
2022-06-30 03:20:00,11.4,8.7,1019.9,WNW,290,3.2,11.3,83,0.0,,,0.0,,,n/a,2022-06-30T01:20:00Z
2022-06-30 03:30:00,11.5,8.7,1020.0,WNW,293,1.6,8,83,0.0,,,0.0,,,n/a,2022-06-30T01:30:00Z
2022-06-30 03:40:00,11.7,8.9,1020.0,WNW,294,1.6,4.8,83,0.0,,,0.0,,,n/a,2022-06-30T01:40:00Z
2022-06-30 03:50:00,11.6,8.8,1020.1,West,269,3.2,6.4,83,0.0,,,0.0,,,n/a,2022-06-30T01:50:00Z
2022-06-30 04:00:00,11.6,8.9,1020.3,WSW,254,3.2,4.8,84,0.0,,,0.0,,,n/a,2022-06-30T02:00:00Z
2022-06-30 04:10:00,11.7,9.1,1020.4,WSW,254,1.6,6.4,84,0.0,,,0.0,,,n/a,2022-06-30T02:10:00Z
2022-06-30 04:20:00,11.9,9.3,1020.4,WSW,254,1.6,4.8,84,0.0,,,0.0,,,n/a,2022-06-30T02:20:00Z
2022-06-30 04:30:00,12.3,9.3,1020.4,WSW,252,3.2,8,82,0.0,,,0.0,,,n/a,2022-06-30T02:30:00Z
2022-06-30 04:40:00,12.1,9.1,1020.4,SW,226,3.2,9.7,82,0.0,,,0.0,,,n/a,2022-06-30T02:40:00Z
2022-06-30 04:50:00,11.8,9.3,1020.4,SW,217,8,9.7,85,0.0,,,0.0,,,n/a,2022-06-30T02:50:00Z
2022-06-30 05:00:00,11.6,9.3,1020.5,SW,219,3.2,8,86,0.0,,,0.0,,,n/a,2022-06-30T03:00:00Z
2022-06-30 05:10:00,11.6,9.3,1020.6,SW,219,4.8,8,86,0.0,,,0.0,,,n/a,2022-06-30T03:10:00Z
2022-06-30 05:20:00,11.2,9.1,1020.6,SSW,212,4.8,8,87,0.0,,,0.0,,,n/a,2022-06-30T03:20:00Z
2022-06-30 05:30:00,11.2,9.3,1020.7,SW,217,4.8,9.7,88,0.0,,,0.0,,,n/a,2022-06-30T03:30:00Z
2022-06-30 05:40:00,11.2,9.3,1020.8,SSW,212,3.2,9.7,88,0.0,,,0.0,,,n/a,2022-06-30T03:40:00Z
2022-06-30 05:50:00,11.4,9.4,1020.8,SSW,212,1.6,6.4,88,0.0,,,0.0,,,n/a,2022-06-30T03:50:00Z
2022-06-30 06:00:00,11.7,9.8,1020.9,SSW,213,4.8,9.7,88,0.0,,,0.0,,,n/a,2022-06-30T04:00:00Z
2022-06-30 06:10:00,11.8,9.7,1020.9,SW,217,8,11.3,87,0.0,,,0.0,,,n/a,2022-06-30T04:10:00Z
2022-06-30 06:20:00,11.9,9.8,1020.9,SW,224,8,11.3,87,0.0,,,0.0,,,n/a,2022-06-30T04:20:00Z
2022-06-30 06:30:00,12,9.7,1021.0,SW,229,8,12.9,86,0.0,,,0.0,,,n/a,2022-06-30T04:30:00Z
2022-06-30 06:40:00,12.1,9.8,1020.9,WSW,242,4.8,12.9,86,0.0,,,0.0,,,n/a,2022-06-30T04:40:00Z
2022-06-30 06:50:00,12.1,9.8,1021.1,SW,222,9.7,12.9,86,0.0,,,0.0,,,n/a,2022-06-30T04:50:00Z
2022-06-30 07:00:00,12,9.7,1021.1,SW,227,4.8,14.5,86,0.0,,,0.0,,,n/a,2022-06-30T05:00:00Z
2022-06-30 07:10:00,11.9,9.8,1021.0,SW,231,9.7,16.1,87,0.0,,,0.0,,,n/a,2022-06-30T05:10:00Z
2022-06-30 07:20:00,12.2,10,1020.9,SW,230,4.8,14.5,86,0.0,,,0.0,,,n/a,2022-06-30T05:20:00Z
2022-06-30 07:30:00,12.4,10.2,1020.9,SW,233,4.8,12.9,86,0.0,,,0.0,,,n/a,2022-06-30T05:30:00Z
2022-06-30 07:40:00,12.3,9.9,1021.0,SW,224,4.8,12.9,85,0.0,,,0.0,,,n/a,2022-06-30T05:40:00Z
2022-06-30 07:50:00,12.4,10,1021.0,SW,217,3.2,11.3,85,0.0,,,0.0,,,n/a,2022-06-30T05:50:00Z
2022-06-30 08:00:00,12.7,10,1021.0,SW,225,8,12.9,84,0.0,,,0.0,,,n/a,2022-06-30T06:00:00Z
2022-06-30 08:10:00,12.6,9.8,1020.9,SW,215,3.2,9.7,83,0.0,,,0.0,,,n/a,2022-06-30T06:10:00Z
2022-06-30 08:20:00,12.9,10.1,1020.9,SW,227,3.2,9.7,83,0.0,,,0.0,,,n/a,2022-06-30T06:20:00Z
2022-06-30 08:30:00,13.3,9.9,1020.9,SW,222,4.8,12.9,80,0.0,,,0.0,,,n/a,2022-06-30T06:30:00Z
2022-06-30 08:40:00,13.9,9.9,1021.0,SW,214,4.8,11.3,77,0.0,,,0.0,,,n/a,2022-06-30T06:40:00Z